sensor_id;sensor_type;location;lat;lon;timestamp;temperature;humidity
14555;DHT22;7364;50.870;4.722;2023-06-04T00:02:16;17.50;49.10
14555;DHT22;7364;50.870;4.722;2023-06-04T00:04:45;17.50;49.30
14555;DHT22;7364;50.870;4.722;2023-06-04T00:07:12;17.40;49.40
14555;DHT22;7364;50.870;4.722;2023-06-04T00:09:40;17.30;49.50
14555;DHT22;7364;50.870;4.722;2023-06-04T00:12:07;17.30;49.80
14555;DHT22;7364;50.870;4.722;2023-06-04T00:14:36;17.30;49.90
14555;DHT22;7364;50.870;4.722;2023-06-04T00:17:03;17.20;50.00
14555;DHT22;7364;50.870;4.722;2023-06-04T00:19:30;17.10;50.00
14555;DHT22;7364;50.870;4.722;2023-06-04T00:22:02;17.10;50.00
14555;DHT22;7364;50.870;4.722;2023-06-04T00:24:29;17.10;50.00
14555;DHT22;7364;50.870;4.722;2023-06-04T00:26:56;17.00;50.00
14555;DHT22;7364;50.870;4.722;2023-06-04T00:29:23;17.10;50.40
14555;DHT22;7364;50.870;4.722;2023-06-04T00:31:51;17.00;50.60
14555;DHT22;7364;50.870;4.722;2023-06-04T00:34:18;17.00;50.80
14555;DHT22;7364;50.870;4.722;2023-06-04T00:36:45;16.90;51.00
14555;DHT22;7364;50.870;4.722;2023-06-04T00:39:14;16.90;51.20
14555;DHT22;7364;50.870;4.722;2023-06-04T00:41:41;16.90;51.40
14555;DHT22;7364;50.870;4.722;2023-06-04T00:44:09;16.80;51.70
14555;DHT22;7364;50.870;4.722;2023-06-04T00:46:37;16.70;51.70
14555;DHT22;7364;50.870;4.722;2023-06-04T00:49:05;16.70;52.10
14555;DHT22;7364;50.870;4.722;2023-06-04T00:51:33;16.60;52.80
14555;DHT22;7364;50.870;4.722;2023-06-04T00:54:02;16.50;52.40
14555;DHT22;7364;50.870;4.722;2023-06-04T00:56:36;16.50;52.60
14555;DHT22;7364;50.870;4.722;2023-06-04T00:59:05;16.40;52.70
14555;DHT22;7364;50.870;4.722;2023-06-04T01:01:39;16.40;52.60
14555;DHT22;7364;50.870;4.722;2023-06-04T01:04:14;16.50;52.50
14555;DHT22;7364;50.870;4.722;2023-06-04T01:06:44;16.40;52.70
14555;DHT22;7364;50.870;4.722;2023-06-04T01:09:13;16.40;52.90
14555;DHT22;7364;50.870;4.722;2023-06-04T01:11:42;16.30;52.90
14555;DHT22;7364;50.870;4.722;2023-06-04T01:14:09;16.20;53.10
14555;DHT22;7364;50.870;4.722;2023-06-04T01:16:41;16.20;53.30
14555;DHT22;7364;50.870;4.722;2023-06-04T01:19:34;16.10;53.40
14555;DHT22;7364;50.870;4.722;2023-06-04T01:22:11;16.00;53.50
14555;DHT22;7364;50.870;4.722;2023-06-04T01:24:53;15.90;53.90
14555;DHT22;7364;50.870;4.722;2023-06-04T01:27:24;15.90;53.90
14555;DHT22;7364;50.870;4.722;2023-06-04T01:29:52;15.90;53.90
14555;DHT22;7364;50.870;4.722;2023-06-04T01:32:23;15.90;53.90
14555;DHT22;7364;50.870;4.722;2023-06-04T01:34:50;15.90;53.90
14555;DHT22;7364;50.870;4.722;2023-06-04T01:37:18;15.80;53.80
14555;DHT22;7364;50.870;4.722;2023-06-04T01:39:45;15.70;53.80
14555;DHT22;7364;50.870;4.722;2023-06-04T01:42:12;15.70;54.20
14555;DHT22;7364;50.870;4.722;2023-06-04T01:44:41;15.70;54.40
14555;DHT22;7364;50.870;4.722;2023-06-04T01:47:08;15.60;54.60
14555;DHT22;7364;50.870;4.722;2023-06-04T01:49:35;15.50;54.80
14555;DHT22;7364;50.870;4.722;2023-06-04T01:52:04;15.50;55.00
14555;DHT22;7364;50.870;4.722;2023-06-04T01:54:31;15.40;55.30
14555;DHT22;7364;50.870;4.722;2023-06-04T01:56:59;15.30;55.60
14555;DHT22;7364;50.870;4.722;2023-06-04T01:59:27;15.20;55.80
14555;DHT22;7364;50.870;4.722;2023-06-04T02:01:55;15.20;56.00
14555;DHT22;7364;50.870;4.722;2023-06-04T02:04:22;15.20;56.10
14555;DHT22;7364;50.870;4.722;2023-06-04T02:06:51;15.20;56.00
14555;DHT22;7364;50.870;4.722;2023-06-04T02:09:18;15.10;56.20
14555;DHT22;7364;50.870;4.722;2023-06-04T02:11:45;15.10;56.30
14555;DHT22;7364;50.870;4.722;2023-06-04T02:14:12;15.10;56.40
14555;DHT22;7364;50.870;4.722;2023-06-04T02:16:40;15.10;56.40
14555;DHT22;7364;50.870;4.722;2023-06-04T02:19:08;15.10;56.40
14555;DHT22;7364;50.870;4.722;2023-06-04T02:21:38;15.10;56.40
14555;DHT22;7364;50.870;4.722;2023-06-04T02:24:05;15.10;56.30
14555;DHT22;7364;50.870;4.722;2023-06-04T02:26:33;15.10;56.40
14555;DHT22;7364;50.870;4.722;2023-06-04T02:29:00;15.10;56.40
14555;DHT22;7364;50.870;4.722;2023-06-04T02:31:27;15.10;56.30
14555;DHT22;7364;50.870;4.722;2023-06-04T02:33:55;15.10;56.30
14555;DHT22;7364;50.870;4.722;2023-06-04T02:36:24;15.30;56.20
14555;DHT22;7364;50.870;4.722;2023-06-04T02:38:51;15.50;55.80
14555;DHT22;7364;50.870;4.722;2023-06-04T02:41:18;15.40;55.70
14555;DHT22;7364;50.870;4.722;2023-06-04T02:43:46;15.30;56.00
14555;DHT22;7364;50.870;4.722;2023-06-04T02:46:13;15.20;56.40
14555;DHT22;7364;50.870;4.722;2023-06-04T02:48:41;15.10;56.60
14555;DHT22;7364;50.870;4.722;2023-06-04T02:51:08;14.90;57.10
14555;DHT22;7364;50.870;4.722;2023-06-04T02:53:37;14.90;57.40
14555;DHT22;7364;50.870;4.722;2023-06-04T02:56:05;15.00;57.30
14555;DHT22;7364;50.870;4.722;2023-06-04T02:58:32;14.90;57.40
14555;DHT22;7364;50.870;4.722;2023-06-04T03:01:04;14.90;57.50
14555;DHT22;7364;50.870;4.722;2023-06-04T03:03:32;14.80;57.60
14555;DHT22;7364;50.870;4.722;2023-06-04T03:06:01;14.90;57.70
14555;DHT22;7364;50.870;4.722;2023-06-04T03:08:30;14.90;57.70
14555;DHT22;7364;50.870;4.722;2023-06-04T03:10:59;14.90;57.70
14555;DHT22;7364;50.870;4.722;2023-06-04T03:13:26;14.90;57.70
14555;DHT22;7364;50.870;4.722;2023-06-04T03:15:54;14.90;57.70
14555;DHT22;7364;50.870;4.722;2023-06-04T03:18:21;14.90;58.10
14555;DHT22;7364;50.870;4.722;2023-06-04T03:20:48;15.00;58.00
14555;DHT22;7364;50.870;4.722;2023-06-04T03:23:16;15.00;57.70
14555;DHT22;7364;50.870;4.722;2023-06-04T03:25:43;14.90;58.20
14555;DHT22;7364;50.870;4.722;2023-06-04T03:28:12;14.90;58.60
14555;DHT22;7364;50.870;4.722;2023-06-04T03:30:40;14.80;58.70
14555;DHT22;7364;50.870;4.722;2023-06-04T03:33:07;14.70;59.10
14555;DHT22;7364;50.870;4.722;2023-06-04T03:35:35;14.60;59.30
14555;DHT22;7364;50.870;4.722;2023-06-04T03:38:02;14.60;59.50
14555;DHT22;7364;50.870;4.722;2023-06-04T03:40:29;14.50;59.80
14555;DHT22;7364;50.870;4.722;2023-06-04T03:42:56;14.40;60.20
14555;DHT22;7364;50.870;4.722;2023-06-04T03:45:25;14.40;60.30
14555;DHT22;7364;50.870;4.722;2023-06-04T03:47:53;14.50;60.50
14555;DHT22;7364;50.870;4.722;2023-06-04T03:50:20;14.60;60.20
14555;DHT22;7364;50.870;4.722;2023-06-04T03:52:48;14.80;60.30
14555;DHT22;7364;50.870;4.722;2023-06-04T03:55:15;14.80;59.80
14555;DHT22;7364;50.870;4.722;2023-06-04T03:57:42;14.70;60.40
14555;DHT22;7364;50.870;4.722;2023-06-04T04:00:11;14.60;60.90
14555;DHT22;7364;50.870;4.722;2023-06-04T04:02:40;14.50;61.30
14555;DHT22;7364;50.870;4.722;2023-06-04T04:05:08;14.40;61.70
14555;DHT22;7364;50.870;4.722;2023-06-04T04:07:37;14.50;61.80
14555;DHT22;7364;50.870;4.722;2023-06-04T04:10:05;14.60;61.50
14555;DHT22;7364;50.870;4.722;2023-06-04T04:12:32;14.70;61.30
14555;DHT22;7364;50.870;4.722;2023-06-04T04:15:00;14.80;61.30
14555;DHT22;7364;50.870;4.722;2023-06-04T04:17:27;14.70;61.40
14555;DHT22;7364;50.870;4.722;2023-06-04T04:19:56;14.60;62.20
14555;DHT22;7364;50.870;4.722;2023-06-04T04:22:23;14.50;62.20
14555;DHT22;7364;50.870;4.722;2023-06-04T04:24:50;14.60;62.80
14555;DHT22;7364;50.870;4.722;2023-06-04T04:27:17;14.50;63.30
14555;DHT22;7364;50.870;4.722;2023-06-04T04:29:45;14.60;63.20
14555;DHT22;7364;50.870;4.722;2023-06-04T04:32:13;14.80;62.80
14555;DHT22;7364;50.870;4.722;2023-06-04T04:34:51;15.00;62.60
14555;DHT22;7364;50.870;4.722;2023-06-04T04:37:21;15.10;62.20
14555;DHT22;7364;50.870;4.722;2023-06-04T04:39:48;15.20;62.00
14555;DHT22;7364;50.870;4.722;2023-06-04T04:42:17;15.30;62.20
14555;DHT22;7364;50.870;4.722;2023-06-04T04:44:45;15.20;62.20
14555;DHT22;7364;50.870;4.722;2023-06-04T04:47:14;15.00;63.30
14555;DHT22;7364;50.870;4.722;2023-06-04T04:49:41;15.00;64.10
14555;DHT22;7364;50.870;4.722;2023-06-04T04:52:08;15.00;64.30
14555;DHT22;7364;50.870;4.722;2023-06-04T04:54:37;15.20;63.90
14555;DHT22;7364;50.870;4.722;2023-06-04T04:57:05;15.10;64.00
14555;DHT22;7364;50.870;4.722;2023-06-04T04:59:33;15.30;64.30
14555;DHT22;7364;50.870;4.722;2023-06-04T05:02:00;15.40;63.70
14555;DHT22;7364;50.870;4.722;2023-06-04T05:04:28;15.20;64.30
14555;DHT22;7364;50.870;4.722;2023-06-04T05:06:55;15.10;64.70
14555;DHT22;7364;50.870;4.722;2023-06-04T05:09:23;15.10;65.30
14555;DHT22;7364;50.870;4.722;2023-06-04T05:11:51;15.20;65.10
14555;DHT22;7364;50.870;4.722;2023-06-04T05:14:19;15.10;65.50
14555;DHT22;7364;50.870;4.722;2023-06-04T05:16:46;15.10;65.70
14555;DHT22;7364;50.870;4.722;2023-06-04T05:19:15;15.20;65.80
14555;DHT22;7364;50.870;4.722;2023-06-04T05:21:42;15.20;66.20
14555;DHT22;7364;50.870;4.722;2023-06-04T05:24:10;15.40;65.90
14555;DHT22;7364;50.870;4.722;2023-06-04T05:26:37;15.30;65.80
14555;DHT22;7364;50.870;4.722;2023-06-04T05:29:08;15.10;66.60
14555;DHT22;7364;50.870;4.722;2023-06-04T05:31:35;15.20;66.70
14555;DHT22;7364;50.870;4.722;2023-06-04T05:34:05;15.30;66.60
14555;DHT22;7364;50.870;4.722;2023-06-04T05:36:33;15.40;66.50
14555;DHT22;7364;50.870;4.722;2023-06-04T05:39:00;15.50;67.00
14555;DHT22;7364;50.870;4.722;2023-06-04T05:41:27;15.60;66.20
14555;DHT22;7364;50.870;4.722;2023-06-04T05:43:54;15.70;66.50
14555;DHT22;7364;50.870;4.722;2023-06-04T05:46:23;15.80;66.30
14555;DHT22;7364;50.870;4.722;2023-06-04T05:48:50;16.00;65.90
14555;DHT22;7364;50.870;4.722;2023-06-04T05:51:18;16.20;65.20
14555;DHT22;7364;50.870;4.722;2023-06-04T05:53:45;16.10;65.20
14555;DHT22;7364;50.870;4.722;2023-06-04T05:56:13;16.10;66.00
14555;DHT22;7364;50.870;4.722;2023-06-04T05:58:40;16.10;67.00
14555;DHT22;7364;50.870;4.722;2023-06-04T06:01:07;16.00;67.00
14555;DHT22;7364;50.870;4.722;2023-06-04T06:03:36;15.80;67.20
14555;DHT22;7364;50.870;4.722;2023-06-04T06:06:03;15.90;67.50
14555;DHT22;7364;50.870;4.722;2023-06-04T06:08:31;16.20;66.80
14555;DHT22;7364;50.870;4.722;2023-06-04T06:10:59;16.20;66.80
14555;DHT22;7364;50.870;4.722;2023-06-04T06:13:26;16.10;66.30
14555;DHT22;7364;50.870;4.722;2023-06-04T06:15:55;16.30;67.00
14555;DHT22;7364;50.870;4.722;2023-06-04T06:18:23;16.60;66.30
14555;DHT22;7364;50.870;4.722;2023-06-04T06:20:52;16.70;65.50
14555;DHT22;7364;50.870;4.722;2023-06-04T06:23:19;16.70;66.10
14555;DHT22;7364;50.870;4.722;2023-06-04T06:25:48;16.90;65.50
14555;DHT22;7364;50.870;4.722;2023-06-04T06:28:17;16.90;65.50
14555;DHT22;7364;50.870;4.722;2023-06-04T06:30:45;16.90;64.70
14555;DHT22;7364;50.870;4.722;2023-06-04T06:33:13;16.90;64.60
14555;DHT22;7364;50.870;4.722;2023-06-04T06:35:42;17.20;63.60
14555;DHT22;7364;50.870;4.722;2023-06-04T06:38:13;17.50;63.00
14555;DHT22;7364;50.870;4.722;2023-06-04T06:40:41;17.80;62.80
14555;DHT22;7364;50.870;4.722;2023-06-04T06:43:08;17.90;61.30
14555;DHT22;7364;50.870;4.722;2023-06-04T06:45:36;17.80;61.70
14555;DHT22;7364;50.870;4.722;2023-06-04T06:48:03;18.00;61.50
14555;DHT22;7364;50.870;4.722;2023-06-04T06:50:31;18.20;61.10
14555;DHT22;7364;50.870;4.722;2023-06-04T06:52:59;18.40;61.10
14555;DHT22;7364;50.870;4.722;2023-06-04T06:55:27;18.50;60.60
14555;DHT22;7364;50.870;4.722;2023-06-04T06:57:55;18.50;60.50
14555;DHT22;7364;50.870;4.722;2023-06-04T07:00:22;18.70;59.70
14555;DHT22;7364;50.870;4.722;2023-06-04T07:02:49;18.70;59.40
14555;DHT22;7364;50.870;4.722;2023-06-04T07:05:16;18.30;59.40
14555;DHT22;7364;50.870;4.722;2023-06-04T07:07:44;18.30;60.90
14555;DHT22;7364;50.870;4.722;2023-06-04T07:10:12;18.50;59.80
14555;DHT22;7364;50.870;4.722;2023-06-04T07:12:41;18.20;60.60
14555;DHT22;7364;50.870;4.722;2023-06-04T07:15:09;18.10;60.60
14555;DHT22;7364;50.870;4.722;2023-06-04T07:17:36;18.00;60.00
14555;DHT22;7364;50.870;4.722;2023-06-04T07:20:04;18.20;60.30
14555;DHT22;7364;50.870;4.722;2023-06-04T07:22:32;18.40;60.00
14555;DHT22;7364;50.870;4.722;2023-06-04T07:24:59;18.40;59.50
14555;DHT22;7364;50.870;4.722;2023-06-04T07:27:27;18.60;60.50
14555;DHT22;7364;50.870;4.722;2023-06-04T07:29:56;18.90;59.60
14555;DHT22;7364;50.870;4.722;2023-06-04T07:32:23;18.90;58.50
14555;DHT22;7364;50.870;4.722;2023-06-04T07:34:50;18.90;59.60
14555;DHT22;7364;50.870;4.722;2023-06-04T07:37:17;18.80;59.20
14555;DHT22;7364;50.870;4.722;2023-06-04T07:39:45;19.20;59.00
14555;DHT22;7364;50.870;4.722;2023-06-04T07:42:13;19.40;57.80
14555;DHT22;7364;50.870;4.722;2023-06-04T07:44:40;19.30;57.90
14555;DHT22;7364;50.870;4.722;2023-06-04T07:47:09;19.20;58.00
14555;DHT22;7364;50.870;4.722;2023-06-04T07:49:36;19.10;57.60
14555;DHT22;7364;50.870;4.722;2023-06-04T07:52:04;19.20;57.80
14555;DHT22;7364;50.870;4.722;2023-06-04T07:54:32;19.50;57.50
14555;DHT22;7364;50.870;4.722;2023-06-04T07:56:59;20.00;57.20
14555;DHT22;7364;50.870;4.722;2023-06-04T07:59:26;20.20;56.70
14555;DHT22;7364;50.870;4.722;2023-06-04T08:01:55;19.90;55.60
14555;DHT22;7364;50.870;4.722;2023-06-04T08:04:23;19.80;57.00
14555;DHT22;7364;50.870;4.722;2023-06-04T08:06:51;20.00;56.70
14555;DHT22;7364;50.870;4.722;2023-06-04T08:09:19;20.10;56.90
14555;DHT22;7364;50.870;4.722;2023-06-04T08:11:47;20.40;55.00
14555;DHT22;7364;50.870;4.722;2023-06-04T08:14:14;20.20;54.60
14555;DHT22;7364;50.870;4.722;2023-06-04T08:16:42;20.50;54.60
14555;DHT22;7364;50.870;4.722;2023-06-04T08:19:12;20.70;55.30
14555;DHT22;7364;50.870;4.722;2023-06-04T08:21:41;20.80;54.30
14555;DHT22;7364;50.870;4.722;2023-06-04T08:24:09;21.10;54.30
14555;DHT22;7364;50.870;4.722;2023-06-04T08:26:37;21.00;53.90
14555;DHT22;7364;50.870;4.722;2023-06-04T08:29:09;20.80;54.20
14555;DHT22;7364;50.870;4.722;2023-06-04T08:31:37;20.60;54.40
14555;DHT22;7364;50.870;4.722;2023-06-04T08:34:05;20.50;54.60
14555;DHT22;7364;50.870;4.722;2023-06-04T08:36:32;20.70;54.70
14555;DHT22;7364;50.870;4.722;2023-06-04T08:39:01;21.00;54.50
14555;DHT22;7364;50.870;4.722;2023-06-04T08:41:29;21.20;53.90
14555;DHT22;7364;50.870;4.722;2023-06-04T08:43:57;21.40;53.60
14555;DHT22;7364;50.870;4.722;2023-06-04T08:46:27;21.30;54.80
14555;DHT22;7364;50.870;4.722;2023-06-04T08:48:57;21.40;54.60
14555;DHT22;7364;50.870;4.722;2023-06-04T08:51:27;21.60;53.30
14555;DHT22;7364;50.870;4.722;2023-06-04T08:53:54;21.60;53.40
14555;DHT22;7364;50.870;4.722;2023-06-04T08:56:24;21.80;53.60
14555;DHT22;7364;50.870;4.722;2023-06-04T08:58:53;21.60;53.60
14555;DHT22;7364;50.870;4.722;2023-06-04T09:01:23;21.80;53.50
14555;DHT22;7364;50.870;4.722;2023-06-04T09:03:50;21.80;52.60
14555;DHT22;7364;50.870;4.722;2023-06-04T09:06:17;21.70;52.60
14555;DHT22;7364;50.870;4.722;2023-06-04T09:08:45;21.70;52.80
14555;DHT22;7364;50.870;4.722;2023-06-04T09:11:14;22.00;53.10
14555;DHT22;7364;50.870;4.722;2023-06-04T09:13:46;21.90;53.10
14555;DHT22;7364;50.870;4.722;2023-06-04T09:16:14;22.20;52.90
14555;DHT22;7364;50.870;4.722;2023-06-04T09:18:41;22.30;52.50
14555;DHT22;7364;50.870;4.722;2023-06-04T09:21:09;22.20;52.00
14555;DHT22;7364;50.870;4.722;2023-06-04T09:23:37;21.90;52.40
14555;DHT22;7364;50.870;4.722;2023-06-04T09:26:13;21.70;50.50
14555;DHT22;7364;50.870;4.722;2023-06-04T09:28:41;21.70;53.30
14555;DHT22;7364;50.870;4.722;2023-06-04T09:31:10;21.90;52.30
14555;DHT22;7364;50.870;4.722;2023-06-04T09:33:44;22.20;52.60
14555;DHT22;7364;50.870;4.722;2023-06-04T09:36:11;22.20;51.40
14555;DHT22;7364;50.870;4.722;2023-06-04T09:38:39;22.40;51.20
14555;DHT22;7364;50.870;4.722;2023-06-04T09:41:12;22.70;50.30
14555;DHT22;7364;50.870;4.722;2023-06-04T09:43:39;22.70;48.80
14555;DHT22;7364;50.870;4.722;2023-06-04T09:46:12;22.50;49.90
14555;DHT22;7364;50.870;4.722;2023-06-04T09:48:41;22.40;49.40
14555;DHT22;7364;50.870;4.722;2023-06-04T09:51:09;22.40;51.90
14555;DHT22;7364;50.870;4.722;2023-06-04T09:53:37;22.50;49.60
14555;DHT22;7364;50.870;4.722;2023-06-04T09:56:06;22.70;49.90
14555;DHT22;7364;50.870;4.722;2023-06-04T09:58:34;22.70;50.30
14555;DHT22;7364;50.870;4.722;2023-06-04T10:01:03;22.60;51.40
14555;DHT22;7364;50.870;4.722;2023-06-04T10:03:33;22.70;51.80
14555;DHT22;7364;50.870;4.722;2023-06-04T10:06:03;22.90;51.10
14555;DHT22;7364;50.870;4.722;2023-06-04T10:08:31;23.00;50.50
14555;DHT22;7364;50.870;4.722;2023-06-04T10:11:01;22.90;50.00
14555;DHT22;7364;50.870;4.722;2023-06-04T10:13:31;23.10;48.80
14555;DHT22;7364;50.870;4.722;2023-06-04T10:16:02;23.00;48.70
14555;DHT22;7364;50.870;4.722;2023-06-04T10:18:32;23.00;48.60
14555;DHT22;7364;50.870;4.722;2023-06-04T10:21:00;22.80;49.90
14555;DHT22;7364;50.870;4.722;2023-06-04T10:23:28;22.70;47.60
14555;DHT22;7364;50.870;4.722;2023-06-04T10:25:56;22.80;48.30
14555;DHT22;7364;50.870;4.722;2023-06-04T10:28:24;22.90;48.00
14555;DHT22;7364;50.870;4.722;2023-06-04T10:30:51;22.60;48.30
14555;DHT22;7364;50.870;4.722;2023-06-04T10:33:19;23.00;48.80
14555;DHT22;7364;50.870;4.722;2023-06-04T10:35:53;23.40;47.10
14555;DHT22;7364;50.870;4.722;2023-06-04T10:38:21;24.60;45.60
14555;DHT22;7364;50.870;4.722;2023-06-04T10:40:48;24.80;45.50
14555;DHT22;7364;50.870;4.722;2023-06-04T10:43:16;24.90;45.40
14555;DHT22;7364;50.870;4.722;2023-06-04T10:45:43;26.00;44.00
14555;DHT22;7364;50.870;4.722;2023-06-04T10:48:13;25.90;44.70
14555;DHT22;7364;50.870;4.722;2023-06-04T10:50:51;26.10;43.00
14555;DHT22;7364;50.870;4.722;2023-06-04T10:53:19;27.20;42.10
14555;DHT22;7364;50.870;4.722;2023-06-04T10:55:48;27.20;42.40
14555;DHT22;7364;50.870;4.722;2023-06-04T10:58:16;27.00;43.50
14555;DHT22;7364;50.870;4.722;2023-06-04T11:00:44;27.00;42.30
14555;DHT22;7364;50.870;4.722;2023-06-04T11:03:14;26.60;41.30
14555;DHT22;7364;50.870;4.722;2023-06-04T11:05:43;26.50;40.20
14555;DHT22;7364;50.870;4.722;2023-06-04T11:08:13;27.00;42.60
14555;DHT22;7364;50.870;4.722;2023-06-04T11:10:43;27.40;39.40
14555;DHT22;7364;50.870;4.722;2023-06-04T11:13:10;28.20;40.40
14555;DHT22;7364;50.870;4.722;2023-06-04T11:15:38;29.40;38.30
14555;DHT22;7364;50.870;4.722;2023-06-04T11:18:06;30.20;37.00
14555;DHT22;7364;50.870;4.722;2023-06-04T11:20:33;30.60;36.20
14555;DHT22;7364;50.870;4.722;2023-06-04T11:23:00;30.80;36.60
14555;DHT22;7364;50.870;4.722;2023-06-04T11:25:30;31.30;36.00
14555;DHT22;7364;50.870;4.722;2023-06-04T11:28:00;31.70;35.50
14555;DHT22;7364;50.870;4.722;2023-06-04T11:30:28;31.00;34.90
14555;DHT22;7364;50.870;4.722;2023-06-04T11:33:02;31.80;35.00
14555;DHT22;7364;50.870;4.722;2023-06-04T11:35:30;32.00;34.60
14555;DHT22;7364;50.870;4.722;2023-06-04T11:37:58;31.70;35.90
14555;DHT22;7364;50.870;4.722;2023-06-04T11:40:26;31.50;34.00
14555;DHT22;7364;50.870;4.722;2023-06-04T11:42:55;31.90;34.30
14555;DHT22;7364;50.870;4.722;2023-06-04T11:45:23;33.90;32.20
14555;DHT22;7364;50.870;4.722;2023-06-04T11:47:52;33.60;30.80
14555;DHT22;7364;50.870;4.722;2023-06-04T11:50:21;35.00;30.40
14555;DHT22;7364;50.870;4.722;2023-06-04T11:52:48;36.20;30.00
14555;DHT22;7364;50.870;4.722;2023-06-04T11:55:16;36.60;29.10
14555;DHT22;7364;50.870;4.722;2023-06-04T11:57:46;35.90;28.30
14555;DHT22;7364;50.870;4.722;2023-06-04T12:00:16;36.90;28.80
14555;DHT22;7364;50.870;4.722;2023-06-04T12:02:52;38.10;27.60
14555;DHT22;7364;50.870;4.722;2023-06-04T12:05:20;38.40;27.80
14555;DHT22;7364;50.870;4.722;2023-06-04T12:07:49;38.20;27.70
14555;DHT22;7364;50.870;4.722;2023-06-04T12:10:17;36.90;26.20
14555;DHT22;7364;50.870;4.722;2023-06-04T12:12:44;35.40;27.60
14555;DHT22;7364;50.870;4.722;2023-06-04T12:15:18;36.20;28.30
14555;DHT22;7364;50.870;4.722;2023-06-04T12:17:53;38.40;26.60
14555;DHT22;7364;50.870;4.722;2023-06-04T12:20:32;39.20;25.90
14555;DHT22;7364;50.870;4.722;2023-06-04T12:23:00;39.90;26.30
14555;DHT22;7364;50.870;4.722;2023-06-04T12:25:29;39.10;26.30
14555;DHT22;7364;50.870;4.722;2023-06-04T12:27:56;39.90;25.60
14555;DHT22;7364;50.870;4.722;2023-06-04T12:30:35;41.20;25.40
14555;DHT22;7364;50.870;4.722;2023-06-04T12:33:04;39.20;25.80
14555;DHT22;7364;50.870;4.722;2023-06-04T12:35:33;38.90;25.40
14555;DHT22;7364;50.870;4.722;2023-06-04T12:38:02;40.10;25.40
14555;DHT22;7364;50.870;4.722;2023-06-04T12:40:29;41.50;25.00
14555;DHT22;7364;50.870;4.722;2023-06-04T12:42:56;41.90;24.80
14555;DHT22;7364;50.870;4.722;2023-06-04T12:45:24;42.40;24.50
14555;DHT22;7364;50.870;4.722;2023-06-04T12:47:51;42.90;24.20
14555;DHT22;7364;50.870;4.722;2023-06-04T12:50:19;43.00;23.20
14555;DHT22;7364;50.870;4.722;2023-06-04T12:52:47;43.70;23.50
14555;DHT22;7364;50.870;4.722;2023-06-04T12:55:14;42.00;22.60
14555;DHT22;7364;50.870;4.722;2023-06-04T12:57:41;41.80;24.50
14555;DHT22;7364;50.870;4.722;2023-06-04T13:00:10;42.80;23.90
14555;DHT22;7364;50.870;4.722;2023-06-04T13:02:38;43.90;22.50
14555;DHT22;7364;50.870;4.722;2023-06-04T13:05:06;44.20;22.40
14555;DHT22;7364;50.870;4.722;2023-06-04T13:07:34;43.30;22.40
14555;DHT22;7364;50.870;4.722;2023-06-04T13:10:02;44.30;23.00
14555;DHT22;7364;50.870;4.722;2023-06-04T13:12:29;44.20;23.40
14555;DHT22;7364;50.870;4.722;2023-06-04T13:14:56;43.70;22.70
14555;DHT22;7364;50.870;4.722;2023-06-04T13:17:24;44.90;22.10
14555;DHT22;7364;50.870;4.722;2023-06-04T13:19:51;43.20;23.10
14555;DHT22;7364;50.870;4.722;2023-06-04T13:22:18;43.10;22.60
14555;DHT22;7364;50.870;4.722;2023-06-04T13:24:47;43.80;22.30
14555;DHT22;7364;50.870;4.722;2023-06-04T13:27:14;42.70;23.40
14555;DHT22;7364;50.870;4.722;2023-06-04T13:29:42;44.00;23.80
14555;DHT22;7364;50.870;4.722;2023-06-04T13:32:09;43.50;22.30
14555;DHT22;7364;50.870;4.722;2023-06-04T13:34:37;44.70;22.30
14555;DHT22;7364;50.870;4.722;2023-06-04T13:37:04;46.30;21.40
14555;DHT22;7364;50.870;4.722;2023-06-04T13:39:32;46.90;20.90
14555;DHT22;7364;50.870;4.722;2023-06-04T13:42:01;47.00;20.40
14555;DHT22;7364;50.870;4.722;2023-06-04T13:44:28;47.70;20.00
14555;DHT22;7364;50.870;4.722;2023-06-04T13:46:58;48.10;19.80
14555;DHT22;7364;50.870;4.722;2023-06-04T13:49:25;48.00;19.90
14555;DHT22;7364;50.870;4.722;2023-06-04T13:51:53;48.00;20.10
14555;DHT22;7364;50.870;4.722;2023-06-04T13:54:20;48.60;19.80
14555;DHT22;7364;50.870;4.722;2023-06-04T13:56:48;48.80;19.80
14555;DHT22;7364;50.870;4.722;2023-06-04T13:59:17;48.50;19.40
14555;DHT22;7364;50.870;4.722;2023-06-04T14:01:44;48.40;19.40
14555;DHT22;7364;50.870;4.722;2023-06-04T14:04:14;46.70;19.60
14555;DHT22;7364;50.870;4.722;2023-06-04T14:06:41;47.10;20.10
14555;DHT22;7364;50.870;4.722;2023-06-04T14:09:09;47.70;19.50
14555;DHT22;7364;50.870;4.722;2023-06-04T14:11:39;47.10;20.10
14555;DHT22;7364;50.870;4.722;2023-06-04T14:14:06;47.80;19.80
14555;DHT22;7364;50.870;4.722;2023-06-04T14:16:35;48.50;19.70
14555;DHT22;7364;50.870;4.722;2023-06-04T14:19:06;49.20;19.30
14555;DHT22;7364;50.870;4.722;2023-06-04T14:21:33;49.50;18.30
14555;DHT22;7364;50.870;4.722;2023-06-04T14:24:01;49.70;18.90
14555;DHT22;7364;50.870;4.722;2023-06-04T14:26:29;50.60;18.20
14555;DHT22;7364;50.870;4.722;2023-06-04T14:28:56;50.20;18.60
14555;DHT22;7364;50.870;4.722;2023-06-04T14:31:23;50.80;18.30
14555;DHT22;7364;50.870;4.722;2023-06-04T14:33:52;50.40;17.60
14555;DHT22;7364;50.870;4.722;2023-06-04T14:36:20;50.80;17.80
14555;DHT22;7364;50.870;4.722;2023-06-04T14:38:47;49.90;18.00
14555;DHT22;7364;50.870;4.722;2023-06-04T14:41:15;49.50;18.30
14555;DHT22;7364;50.870;4.722;2023-06-04T14:43:42;50.10;18.20
14555;DHT22;7364;50.870;4.722;2023-06-04T14:46:10;50.10;18.50
14555;DHT22;7364;50.870;4.722;2023-06-04T14:48:37;49.60;18.20
14555;DHT22;7364;50.870;4.722;2023-06-04T14:51:06;49.90;17.60
14555;DHT22;7364;50.870;4.722;2023-06-04T14:53:33;48.30;17.80
14555;DHT22;7364;50.870;4.722;2023-06-04T14:56:00;47.40;19.50
14555;DHT22;7364;50.870;4.722;2023-06-04T14:58:28;48.00;18.70
14555;DHT22;7364;50.870;4.722;2023-06-04T15:00:55;47.90;18.00
14555;DHT22;7364;50.870;4.722;2023-06-04T15:03:24;47.50;17.50
14555;DHT22;7364;50.870;4.722;2023-06-04T15:05:52;47.40;18.10
14555;DHT22;7364;50.870;4.722;2023-06-04T15:08:21;46.10;18.20
14555;DHT22;7364;50.870;4.722;2023-06-04T15:10:51;43.30;19.30
14555;DHT22;7364;50.870;4.722;2023-06-04T15:13:27;43.50;20.00
14555;DHT22;7364;50.870;4.722;2023-06-04T15:16:00;41.90;19.90
14555;DHT22;7364;50.870;4.722;2023-06-04T15:18:27;39.60;20.80
14555;DHT22;7364;50.870;4.722;2023-06-04T15:20:54;38.60;23.70
14555;DHT22;7364;50.870;4.722;2023-06-04T15:23:23;37.80;23.00
14555;DHT22;7364;50.870;4.722;2023-06-04T15:25:50;36.40;23.70
14555;DHT22;7364;50.870;4.722;2023-06-04T15:28:17;35.60;24.40
14555;DHT22;7364;50.870;4.722;2023-06-04T15:30:44;35.40;24.60
14555;DHT22;7364;50.870;4.722;2023-06-04T15:33:11;35.10;25.00
14555;DHT22;7364;50.870;4.722;2023-06-04T15:35:39;34.40;25.10
14555;DHT22;7364;50.870;4.722;2023-06-04T15:38:06;34.00;25.70
14555;DHT22;7364;50.870;4.722;2023-06-04T15:40:35;33.80;27.20
14555;DHT22;7364;50.870;4.722;2023-06-04T15:43:02;33.40;26.20
14555;DHT22;7364;50.870;4.722;2023-06-04T15:45:29;33.30;26.80
14555;DHT22;7364;50.870;4.722;2023-06-04T15:47:56;33.40;26.60
14555;DHT22;7364;50.870;4.722;2023-06-04T15:50:23;33.50;28.30
14555;DHT22;7364;50.870;4.722;2023-06-04T15:52:51;33.70;27.30